sensor_id;sensor_type;location;lat;lon;timestamp;pressure;altitude;pressure_sealevel;temperature;humidity
55590;BME280;41452;42.780;23.116;2023-05-11T00:00:05;94528.31;;;8.11;100.00
55590;BME280;41452;42.780;23.116;2023-05-11T00:02:31;94494.66;;;7.90;100.00
55590;BME280;41452;42.780;23.116;2023-05-11T00:04:56;94523.50;;;8.08;100.00
55590;BME280;41452;42.780;23.116;2023-05-11T00:07:22;94544.59;;;8.13;100.00
55590;BME280;41452;42.780;23.116;2023-05-11T00:09:47;94531.19;;;8.03;100.00
55590;BME280;41452;42.780;23.116;2023-05-11T00:12:13;94550.66;;;8.14;100.00
55590;BME280;41452;42.780;23.116;2023-05-11T00:14:38;94552.88;;;8.10;100.00
55590;BME280;41452;42.780;23.116;2023-05-11T00:17:04;94532.03;;;7.97;100.00
55590;BME280;41452;42.780;23.116;2023-05-11T00:19:30;94521.59;;;7.90;100.00
55590;BME280;41452;42.780;23.116;2023-05-11T00:21:56;94502.78;;;7.75;100.00
55590;BME280;41452;42.780;23.116;2023-05-11T00:24:23;94552.28;;;8.08;100.00
55590;BME280;41452;42.780;23.116;2023-05-11T00:26:48;94551.31;;;8.03;100.00
55590;BME280;41452;42.780;23.116;2023-05-11T00:29:14;94554.34;;;7.99;100.00
55590;BME280;41452;42.780;23.116;2023-05-11T00:31:39;94548.09;;;8.00;100.00
55590;BME280;41452;42.780;23.116;2023-05-11T00:34:04;94544.53;;;7.88;100.00
55590;BME280;41452;42.780;23.116;2023-05-11T00:36:30;94556.16;;;7.99;100.00
55590;BME280;41452;42.780;23.116;2023-05-11T00:38:55;94561.81;;;7.96;100.00
55590;BME280;41452;42.780;23.116;2023-05-11T00:41:21;94545.38;;;7.82;100.00
55590;BME280;41452;42.780;23.116;2023-05-11T00:43:46;94560.63;;;7.85;100.00
55590;BME280;41452;42.780;23.116;2023-05-11T00:46:12;94555.00;;;7.81;100.00
55590;BME280;41452;42.780;23.116;2023-05-11T00:48:37;94546.63;;;7.73;100.00
55590;BME280;41452;42.780;23.116;2023-05-11T00:51:03;94563.47;;;7.84;100.00
55590;BME280;41452;42.780;23.116;2023-05-11T00:53:28;94566.09;;;7.84;100.00
55590;BME280;41452;42.780;23.116;2023-05-11T00:55:54;94535.97;;;7.68;100.00
55590;BME280;41452;42.780;23.116;2023-05-11T00:58:19;94551.22;;;7.71;100.00
55590;BME280;41452;42.780;23.116;2023-05-11T01:00:45;94556.25;;;7.79;100.00
55590;BME280;41452;42.780;23.116;2023-05-11T01:03:12;94554.84;;;7.76;100.00
55590;BME280;41452;42.780;23.116;2023-05-11T01:05:56;94551.00;;;7.79;100.00
55590;BME280;41452;42.780;23.116;2023-05-11T01:08:35;94508.53;;;7.45;100.00
55590;BME280;41452;42.780;23.116;2023-05-11T01:13:54;94551.84;;;7.73;100.00
55590;BME280;41452;42.780;23.116;2023-05-11T01:16:22;94543.44;;;7.64;100.00
55590;BME280;41452;42.780;23.116;2023-05-11T01:21:17;94540.06;;;7.57;100.00
55590;BME280;41452;42.780;23.116;2023-05-11T01:24:19;94566.31;;;7.69;100.00
55590;BME280;41452;42.780;23.116;2023-05-11T01:26:58;94558.28;;;7.64;100.00
55590;BME280;41452;42.780;23.116;2023-05-11T01:31:55;94544.69;;;7.48;100.00
55590;BME280;41452;42.780;23.116;2023-05-11T01:34:23;94553.31;;;7.55;100.00
55590;BME280;41452;42.780;23.116;2023-05-11T01:39:25;94562.53;;;7.65;100.00
55590;BME280;41452;42.780;23.116;2023-05-11T01:41:52;94543.06;;;7.54;100.00
55590;BME280;41452;42.780;23.116;2023-05-11T01:44:22;94545.69;;;7.54;100.00
55590;BME280;41452;42.780;23.116;2023-05-11T01:46:50;94568.75;;;7.64;100.00
55590;BME280;41452;42.780;23.116;2023-05-11T01:49:16;94564.75;;;7.68;100.00
55590;BME280;41452;42.780;23.116;2023-05-11T01:51:43;94562.31;;;7.66;100.00
55590;BME280;41452;42.780;23.116;2023-05-11T01:54:11;94546.09;;;7.51;100.00
55590;BME280;41452;42.780;23.116;2023-05-11T01:56:37;94548.50;;;7.52;100.00
55590;BME280;41452;42.780;23.116;2023-05-11T01:59:05;94561.56;;;7.59;100.00
55590;BME280;41452;42.780;23.116;2023-05-11T02:01:33;94550.91;;;7.47;100.00
55590;BME280;41452;42.780;23.116;2023-05-11T02:04:02;94563.00;;;7.48;100.00
55590;BME280;41452;42.780;23.116;2023-05-11T02:06:29;94559.97;;;7.45;100.00
55590;BME280;41452;42.780;23.116;2023-05-11T02:08:56;94551.31;;;7.44;100.00
55590;BME280;41452;42.780;23.116;2023-05-11T02:11:24;94556.16;;;7.47;100.00
55590;BME280;41452;42.780;23.116;2023-05-11T02:13:52;94541.72;;;7.31;100.00
55590;BME280;41452;42.780;23.116;2023-05-11T02:16:21;94555.94;;;7.42;100.00
55590;BME280;41452;42.780;23.116;2023-05-11T02:18:48;94557.56;;;7.43;100.00
55590;BME280;41452;42.780;23.116;2023-05-11T02:21:15;94556.97;;;7.41;100.00
55590;BME280;41452;42.780;23.116;2023-05-11T02:23:42;94564.44;;;7.37;100.00
55590;BME280;41452;42.780;23.116;2023-05-11T02:26:08;94553.59;;;7.34;100.00
55590;BME280;41452;42.780;23.116;2023-05-11T02:28:34;94552.97;;;7.32;100.00
55590;BME280;41452;42.780;23.116;2023-05-11T02:31:04;94530.53;;;7.11;100.00
55590;BME280;41452;42.780;23.116;2023-05-11T02:33:34;94551.97;;;7.26;100.00
55590;BME280;41452;42.780;23.116;2023-05-11T02:36:02;94532.50;;;7.09;100.00
55590;BME280;41452;42.780;23.116;2023-05-11T02:38:32;94560.63;;;7.20;100.00
55590;BME280;41452;42.780;23.116;2023-05-11T02:41:01;94556.41;;;7.12;100.00
55590;BME280;41452;42.780;23.116;2023-05-11T02:43:31;94561.22;;;7.15;100.00
55590;BME280;41452;42.780;23.116;2023-05-11T02:46:10;94554.81;;;7.11;100.00
55590;BME280;41452;42.780;23.116;2023-05-11T02:48:39;94530.53;;;6.91;100.00
55590;BME280;41452;42.780;23.116;2023-05-11T02:51:09;94540.78;;;6.99;100.00
55590;BME280;41452;42.780;23.116;2023-05-11T02:53:36;94529.13;;;6.81;100.00
55590;BME280;41452;42.780;23.116;2023-05-11T02:56:02;94551.81;;;7.01;100.00
55590;BME280;41452;42.780;23.116;2023-05-11T02:58:28;94554.41;;;7.01;100.00
55590;BME280;41452;42.780;23.116;2023-05-11T03:00:54;94494.41;;;6.74;100.00
55590;BME280;41452;42.780;23.116;2023-05-11T03:03:20;94538.94;;;6.93;100.00
55590;BME280;41452;42.780;23.116;2023-05-11T03:05:45;94535.34;;;6.94;100.00
55590;BME280;41452;42.780;23.116;2023-05-11T03:08:11;94563.69;;;7.03;100.00
55590;BME280;41452;42.780;23.116;2023-05-11T03:10:37;94548.22;;;7.02;100.00
55590;BME280;41452;42.780;23.116;2023-05-11T03:13:04;94529.94;;;6.75;100.00
55590;BME280;41452;42.780;23.116;2023-05-11T03:15:31;94554.81;;;6.98;100.00
55590;BME280;41452;42.780;23.116;2023-05-11T03:17:57;94557.22;;;6.99;100.00
55590;BME280;41452;42.780;23.116;2023-05-11T03:20:24;94532.75;;;6.87;100.00
55590;BME280;41452;42.780;23.116;2023-05-11T03:22:51;94560.47;;;6.95;100.00
55590;BME280;41452;42.780;23.116;2023-05-11T03:25:17;94537.97;;;6.87;100.00
55590;BME280;41452;42.780;23.116;2023-05-11T03:27:44;94532.34;;;6.83;100.00
55590;BME280;41452;42.780;23.116;2023-05-11T03:30:11;94562.84;;;6.96;100.00
55590;BME280;41452;42.780;23.116;2023-05-11T03:32:37;94560.06;;;6.91;100.00
55590;BME280;41452;42.780;23.116;2023-05-11T03:35:03;94561.47;;;6.94;100.00
55590;BME280;41452;42.780;23.116;2023-05-11T03:37:29;94558.84;;;6.94;100.00
55590;BME280;41452;42.780;23.116;2023-05-11T03:39:57;94571.72;;;6.95;100.00
55590;BME280;41452;42.780;23.116;2023-05-11T03:42:25;94564.66;;;6.89;100.00
55590;BME280;41452;42.780;23.116;2023-05-11T03:44:52;94526.53;;;6.61;100.00
55590;BME280;41452;42.780;23.116;2023-05-11T03:47:20;94570.09;;;7.01;100.00
55590;BME280;41452;42.780;23.116;2023-05-11T03:49:47;94569.69;;;6.97;100.00
55590;BME280;41452;42.780;23.116;2023-05-11T03:52:13;94547.22;;;6.90;100.00
55590;BME280;41452;42.780;23.116;2023-05-11T03:54:43;94572.09;;;6.99;100.00
55590;BME280;41452;42.780;23.116;2023-05-11T03:57:09;94570.28;;;6.93;100.00
55590;BME280;41452;42.780;23.116;2023-05-11T03:59:35;94577.53;;;6.97;100.00
55590;BME280;41452;42.780;23.116;2023-05-11T04:02:02;94576.53;;;6.98;100.00
55590;BME280;41452;42.780;23.116;2023-05-11T04:04:28;94578.75;;;6.95;100.00
55590;BME280;41452;42.780;23.116;2023-05-11T04:06:55;94576.31;;;7.00;100.00
55590;BME280;41452;42.780;23.116;2023-05-11T04:09:20;94584.56;;;6.97;100.00
55590;BME280;41452;42.780;23.116;2023-05-11T04:11:45;94573.50;;;6.88;100.00
55590;BME280;41452;42.780;23.116;2023-05-11T04:14:11;94585.16;;;6.99;100.00
55590;BME280;41452;42.780;23.116;2023-05-11T04:16:36;94581.13;;;6.96;100.00
55590;BME280;41452;42.780;23.116;2023-05-11T04:19:01;94580.53;;;6.94;100.00
55590;BME280;41452;42.780;23.116;2023-05-11T04:21:27;94566.88;;;6.85;100.00
55590;BME280;41452;42.780;23.116;2023-05-11T04:23:52;94582.94;;;6.96;100.00
55590;BME280;41452;42.780;23.116;2023-05-11T04:26:19;94569.28;;;6.87;100.00
55590;BME280;41452;42.780;23.116;2023-05-11T04:28:45;94576.91;;;6.82;100.00
55590;BME280;41452;42.780;23.116;2023-05-11T04:31:11;94600.22;;;6.97;100.00
55590;BME280;41452;42.780;23.116;2023-05-11T04:33:36;94589.38;;;6.87;100.00
55590;BME280;41452;42.780;23.116;2023-05-11T04:36:02;94593.78;;;6.93;100.00
55590;BME280;41452;42.780;23.116;2023-05-11T04:38:27;94589.56;;;6.78;100.00
55590;BME280;41452;42.780;23.116;2023-05-11T04:40:52;94598.59;;;6.89;100.00
55590;BME280;41452;42.780;23.116;2023-05-11T04:43:18;94610.66;;;6.97;100.00
55590;BME280;41452;42.780;23.116;2023-05-11T04:45:49;94610.25;;;7.00;100.00
55590;BME280;41452;42.780;23.116;2023-05-11T04:48:15;94601.41;;;6.94;100.00
55590;BME280;41452;42.780;23.116;2023-05-11T04:50:41;94604.44;;;6.98;100.00
55590;BME280;41452;42.780;23.116;2023-05-11T04:53:07;94611.47;;;7.04;100.00
55590;BME280;41452;42.780;23.116;2023-05-11T04:55:32;94594.59;;;7.00;100.00
55590;BME280;41452;42.780;23.116;2023-05-11T04:57:58;94605.03;;;7.07;100.00
55590;BME280;41452;42.780;23.116;2023-05-11T05:00:23;94605.03;;;7.00;100.00
55590;BME280;41452;42.780;23.116;2023-05-11T05:02:49;94613.25;;;7.10;100.00
55590;BME280;41452;42.780;23.116;2023-05-11T05:05:17;94593.19;;;6.91;100.00
55590;BME280;41452;42.780;23.116;2023-05-11T05:07:42;94625.75;;;6.95;100.00
55590;BME280;41452;42.780;23.116;2023-05-11T05:10:08;94617.91;;;6.95;100.00
55590;BME280;41452;42.780;23.116;2023-05-11T05:12:37;94626.34;;;6.97;100.00
55590;BME280;41452;42.780;23.116;2023-05-11T05:15:04;94623.09;;;7.01;100.00
55590;BME280;41452;42.780;23.116;2023-05-11T05:17:30;94618.91;;;7.07;100.00
55590;BME280;41452;42.780;23.116;2023-05-11T05:19:56;94605.03;;;7.00;100.00
55590;BME280;41452;42.780;23.116;2023-05-11T05:22:22;94601.22;;;6.89;100.00
55590;BME280;41452;42.780;23.116;2023-05-11T05:24:48;94612.06;;;6.99;100.00
55590;BME280;41452;42.780;23.116;2023-05-11T05:27:13;94597.81;;;6.82;100.00
55590;BME280;41452;42.780;23.116;2023-05-11T05:29:38;94628.97;;;7.03;100.00
55590;BME280;41452;42.780;23.116;2023-05-11T05:32:04;94606.63;;;6.94;100.00
55590;BME280;41452;42.780;23.116;2023-05-11T05:34:29;94607.47;;;6.95;100.00
55590;BME280;41452;42.780;23.116;2023-05-11T05:36:55;94628.97;;;7.03;100.00
55590;BME280;41452;42.780;23.116;2023-05-11T05:39:20;94591.56;;;6.96;100.00
55590;BME280;41452;42.780;23.116;2023-05-11T05:41:45;94578.13;;;6.79;100.00
55590;BME280;41452;42.780;23.116;2023-05-11T05:44:11;94595.41;;;6.94;100.00
55590;BME280;41452;42.780;23.116;2023-05-11T05:46:36;94637.19;;;7.14;100.00
55590;BME280;41452;42.780;23.116;2023-05-11T05:49:02;94629.16;;;7.22;100.00
55590;BME280;41452;42.780;23.116;2023-05-11T05:51:27;94627.72;;;7.19;100.00
55590;BME280;41452;42.780;23.116;2023-05-11T05:53:53;94637.97;;;7.21;100.00
55590;BME280;41452;42.780;23.116;2023-05-11T05:56:18;94635.16;;;7.22;100.00
55590;BME280;41452;42.780;23.116;2023-05-11T05:58:43;94616.09;;;7.15;100.00
55590;BME280;41452;42.780;23.116;2023-05-11T06:01:09;94634.16;;;7.23;100.00
55590;BME280;41452;42.780;23.116;2023-05-11T06:03:34;94619.91;;;7.06;100.00
55590;BME280;41452;42.780;23.116;2023-05-11T06:06:00;94624.53;;;6.97;100.00
55590;BME280;41452;42.780;23.116;2023-05-11T06:08:27;94589.34;;;6.73;100.00
55590;BME280;41452;42.780;23.116;2023-05-11T06:10:52;94628.13;;;6.96;100.00
55590;BME280;41452;42.780;23.116;2023-05-11T06:13:17;94639.38;;;7.17;100.00
55590;BME280;41452;42.780;23.116;2023-05-11T06:15:43;94639.97;;;7.12;100.00
55590;BME280;41452;42.780;23.116;2023-05-11T06:18:08;94646.44;;;7.10;100.00
55590;BME280;41452;42.780;23.116;2023-05-11T06:20:34;94628.94;;;6.97;100.00
55590;BME280;41452;42.780;23.116;2023-05-11T06:23:00;94655.06;;;7.17;100.00
55590;BME280;41452;42.780;23.116;2023-05-11T06:25:25;94653.03;;;7.19;100.00
55590;BME280;41452;42.780;23.116;2023-05-11T06:27:51;94643.03;;;7.09;100.00
55590;BME280;41452;42.780;23.116;2023-05-11T06:30:17;94651.25;;;7.13;100.00
55590;BME280;41452;42.780;23.116;2023-05-11T06:32:42;94645.59;;;6.96;100.00
55590;BME280;41452;42.780;23.116;2023-05-11T06:35:08;94661.31;;;7.09;100.00
55590;BME280;41452;42.780;23.116;2023-05-11T06:37:33;94647.03;;;6.98;100.00
55590;BME280;41452;42.780;23.116;2023-05-11T06:39:59;94661.50;;;7.08;100.00
55590;BME280;41452;42.780;23.116;2023-05-11T06:42:25;94663.50;;;7.12;100.00
55590;BME280;41452;42.780;23.116;2023-05-11T06:44:50;94665.31;;;7.18;100.00
55590;BME280;41452;42.780;23.116;2023-05-11T06:47:15;94668.72;;;7.19;100.00
55590;BME280;41452;42.780;23.116;2023-05-11T06:49:41;94666.09;;;7.12;100.00
55590;BME280;41452;42.780;23.116;2023-05-11T06:52:07;94670.34;;;7.20;100.00
55590;BME280;41452;42.780;23.116;2023-05-11T06:54:33;94670.16;;;7.21;100.00
55590;BME280;41452;42.780;23.116;2023-05-11T06:56:58;94668.53;;;7.20;100.00
55590;BME280;41452;42.780;23.116;2023-05-11T06:59:25;94654.06;;;7.11;100.00
55590;BME280;41452;42.780;23.116;2023-05-11T07:01:51;94660.91;;;7.26;100.00
55590;BME280;41452;42.780;23.116;2023-05-11T07:04:16;94639.81;;;7.07;100.00
55590;BME280;41452;42.780;23.116;2023-05-11T07:06:41;94670.34;;;7.27;100.00
55590;BME280;41452;42.780;23.116;2023-05-11T07:09:07;94673.16;;;7.25;100.00
55590;BME280;41452;42.780;23.116;2023-05-11T07:11:32;94670.13;;;7.28;100.00
55590;BME280;41452;42.780;23.116;2023-05-11T07:13:57;94659.06;;;7.33;100.00
55590;BME280;41452;42.780;23.116;2023-05-11T07:16:23;94616.28;;;7.14;100.00
55590;BME280;41452;42.780;23.116;2023-05-11T07:18:48;94665.50;;;7.43;100.00
55590;BME280;41452;42.780;23.116;2023-05-11T07:21:14;94624.13;;;7.27;100.00
55590;BME280;41452;42.780;23.116;2023-05-11T07:23:40;94666.94;;;7.46;100.00
55590;BME280;41452;42.780;23.116;2023-05-11T07:26:05;94672.50;;;7.56;100.00
55590;BME280;41452;42.780;23.116;2023-05-11T07:28:35;94643.81;;;7.43;100.00
55590;BME280;41452;42.780;23.116;2023-05-11T07:31:00;94672.72;;;7.61;100.00
55590;BME280;41452;42.780;23.116;2023-05-11T07:33:26;94674.97;;;7.45;100.00
55590;BME280;41452;42.780;23.116;2023-05-11T07:35:51;94647.22;;;7.50;100.00
55590;BME280;41452;42.780;23.116;2023-05-11T07:38:16;94666.25;;;7.71;100.00
55590;BME280;41452;42.780;23.116;2023-05-11T07:40:42;94650.56;;;7.71;100.00
55590;BME280;41452;42.780;23.116;2023-05-11T07:43:08;94625.88;;;7.60;100.00
55590;BME280;41452;42.780;23.116;2023-05-11T07:45:33;94650.16;;;7.74;100.00
55590;BME280;41452;42.780;23.116;2023-05-11T07:47:58;94653.81;;;7.73;100.00
55590;BME280;41452;42.780;23.116;2023-05-11T07:50:24;94663.81;;;7.89;100.00
55590;BME280;41452;42.780;23.116;2023-05-11T07:52:49;94665.81;;;7.94;100.00
55590;BME280;41452;42.780;23.116;2023-05-11T07:55:15;94658.19;;;7.92;100.00
55590;BME280;41452;42.780;23.116;2023-05-11T07:57:40;94668.03;;;7.90;100.00
55590;BME280;41452;42.780;23.116;2023-05-11T08:00:06;94668.81;;;7.97;100.00
55590;BME280;41452;42.780;23.116;2023-05-11T08:02:32;94669.44;;;7.99;100.00
55590;BME280;41452;42.780;23.116;2023-05-11T08:04:57;94673.81;;;8.06;100.00
55590;BME280;41452;42.780;23.116;2023-05-11T08:07:23;94659.97;;;7.98;100.00
55590;BME280;41452;42.780;23.116;2023-05-11T08:09:48;94669.56;;;8.18;100.00
55590;BME280;41452;42.780;23.116;2023-05-11T08:12:14;94668.31;;;8.27;100.00
55590;BME280;41452;42.780;23.116;2023-05-11T08:14:39;94672.13;;;8.31;100.00
55590;BME280;41452;42.780;23.116;2023-05-11T08:17:07;94669.28;;;8.40;100.00
55590;BME280;41452;42.780;23.116;2023-05-11T08:19:33;94674.72;;;8.45;100.00
55590;BME280;41452;42.780;23.116;2023-05-11T08:21:59;94656.97;;;8.40;100.00
55590;BME280;41452;42.780;23.116;2023-05-11T08:24:25;94655.38;;;8.39;100.00
55590;BME280;41452;42.780;23.116;2023-05-11T08:26:50;94630.69;;;8.28;100.00
55590;BME280;41452;42.780;23.116;2023-05-11T08:29:16;94634.06;;;8.35;100.00
55590;BME280;41452;42.780;23.116;2023-05-11T08:31:41;94646.09;;;8.50;100.00
55590;BME280;41452;42.780;23.116;2023-05-11T08:34:07;94665.38;;;8.62;100.00
55590;BME280;41452;42.780;23.116;2023-05-11T08:36:34;94664.53;;;8.68;100.00
55590;BME280;41452;42.780;23.116;2023-05-11T08:38:59;94666.91;;;8.77;100.00
55590;BME280;41452;42.780;23.116;2023-05-11T08:41:25;94662.25;;;8.79;100.00
55590;BME280;41452;42.780;23.116;2023-05-11T08:43:51;94641.13;;;8.73;100.00
55590;BME280;41452;42.780;23.116;2023-05-11T08:46:20;94664.63;;;8.87;100.00
55590;BME280;41452;42.780;23.116;2023-05-11T08:48:47;94666.97;;;8.95;100.00
55590;BME280;41452;42.780;23.116;2023-05-11T08:51:12;94670.19;;;8.97;100.00
55590;BME280;41452;42.780;23.116;2023-05-11T08:53:38;94649.72;;;8.87;100.00
55590;BME280;41452;42.780;23.116;2023-05-11T08:56:06;94663.09;;;9.04;100.00
55590;BME280;41452;42.780;23.116;2023-05-11T08:58:34;94660.69;;;9.03;100.00
55590;BME280;41452;42.780;23.116;2023-05-11T09:01:03;94654.00;;;9.07;100.00
55590;BME280;41452;42.780;23.116;2023-05-11T09:03:30;94647.69;;;9.14;100.00
55590;BME280;41452;42.780;23.116;2023-05-11T09:05:56;94624.59;;;9.05;100.00
55590;BME280;41452;42.780;23.116;2023-05-11T09:08:23;94638.03;;;9.15;100.00
55590;BME280;41452;42.780;23.116;2023-05-11T09:10:49;94648.34;;;9.35;100.00
55590;BME280;41452;42.780;23.116;2023-05-11T09:13:16;94609.47;;;9.07;100.00
55590;BME280;41452;42.780;23.116;2023-05-11T09:15:41;94649.09;;;9.42;100.00
55590;BME280;41452;42.780;23.116;2023-05-11T09:18:07;94641.59;;;9.46;100.00
55590;BME280;41452;42.780;23.116;2023-05-11T09:20:33;94645.38;;;9.50;98.64
55590;BME280;41452;42.780;23.116;2023-05-11T09:22:59;94642.38;;;9.46;98.90
55590;BME280;41452;42.780;23.116;2023-05-11T09:25:25;94638.59;;;9.42;100.00
55590;BME280;41452;42.780;23.116;2023-05-11T09:27:52;94644.00;;;9.47;98.50
55590;BME280;41452;42.780;23.116;2023-05-11T09:30:20;94643.34;;;9.52;100.00
55590;BME280;41452;42.780;23.116;2023-05-11T09:32:56;94642.59;;;9.45;98.11
55590;BME280;41452;42.780;23.116;2023-05-11T09:40:30;94641.53;;;9.52;99.88
55590;BME280;41452;42.780;23.116;2023-05-11T09:42:57;94646.13;;;9.57;100.00
55590;BME280;41452;42.780;23.116;2023-05-11T09:45:42;94638.84;;;9.59;100.00
55590;BME280;41452;42.780;23.116;2023-05-11T09:48:29;94643.72;;;9.56;98.93
55590;BME280;41452;42.780;23.116;2023-05-11T09:51:13;94633.22;;;9.56;100.00
55590;BME280;41452;42.780;23.116;2023-05-11T09:53:44;94633.53;;;9.66;99.60
55590;BME280;41452;42.780;23.116;2023-05-11T09:56:11;94636.31;;;9.71;98.74
55590;BME280;41452;42.780;23.116;2023-05-11T09:58:55;94595.25;;;9.40;98.29
55590;BME280;41452;42.780;23.116;2023-05-11T10:01:32;94632.16;;;9.82;100.00
55590;BME280;41452;42.780;23.116;2023-05-11T10:04:00;94628.47;;;9.89;100.00
55590;BME280;41452;42.780;23.116;2023-05-11T10:06:26;94621.44;;;10.02;99.50
55590;BME280;41452;42.780;23.116;2023-05-11T10:08:53;94614.25;;;9.97;96.88
55590;BME280;41452;42.780;23.116;2023-05-11T10:11:21;94614.19;;;10.04;99.71
55590;BME280;41452;42.780;23.116;2023-05-11T10:13:47;94606.06;;;10.05;100.00
55590;BME280;41452;42.780;23.116;2023-05-11T10:16:14;94605.19;;;10.12;97.29
55590;BME280;41452;42.780;23.116;2023-05-11T10:18:41;94592.28;;;10.10;100.00
55590;BME280;41452;42.780;23.116;2023-05-11T10:21:09;94597.47;;;10.17;96.60
55590;BME280;41452;42.780;23.116;2023-05-11T10:23:35;94597.75;;;10.27;96.75
55590;BME280;41452;42.780;23.116;2023-05-11T10:26:03;94591.25;;;10.30;97.92
55590;BME280;41452;42.780;23.116;2023-05-11T10:28:28;94595.47;;;10.31;98.29
55590;BME280;41452;42.780;23.116;2023-05-11T10:30:54;94595.31;;;10.44;98.99
55590;BME280;41452;42.780;23.116;2023-05-11T10:33:22;94561.88;;;10.21;100.00
55590;BME280;41452;42.780;23.116;2023-05-11T10:35:49;94608.66;;;10.42;98.62
55590;BME280;41452;42.780;23.116;2023-05-11T10:38:16;94601.25;;;10.39;97.55
55590;BME280;41452;42.780;23.116;2023-05-11T10:40:42;94572.47;;;10.33;95.56
55590;BME280;41452;42.780;23.116;2023-05-11T10:46:35;94600.97;;;10.59;97.87
55590;BME280;41452;42.780;23.116;2023-05-11T10:49:13;94602.56;;;10.60;96.87
55590;BME280;41452;42.780;23.116;2023-05-11T11:01:25;94592.00;;;10.79;95.41
55590;BME280;41452;42.780;23.116;2023-05-11T11:03:58;94604.78;;;10.75;92.82
55590;BME280;41452;42.780;23.116;2023-05-11T11:06:24;94597.41;;;10.84;95.82
55590;BME280;41452;42.780;23.116;2023-05-11T11:09:00;94597.03;;;10.80;92.18
55590;BME280;41452;42.780;23.116;2023-05-11T11:14:01;94581.38;;;10.74;93.93
55590;BME280;41452;42.780;23.116;2023-05-11T11:16:29;94593.97;;;10.95;93.88
55590;BME280;41452;42.780;23.116;2023-05-11T11:22:01;94589.28;;;10.86;92.38
55590;BME280;41452;42.780;23.116;2023-05-11T11:27:02;94556.72;;;10.75;93.77
55590;BME280;41452;42.780;23.116;2023-05-11T11:29:29;94589.50;;;10.96;90.66
55590;BME280;41452;42.780;23.116;2023-05-11T11:31:54;94592.16;;;10.96;91.87
55590;BME280;41452;42.780;23.116;2023-05-11T11:39:27;94577.66;;;11.17;86.54
55590;BME280;41452;42.780;23.116;2023-05-11T11:42:00;94585.66;;;11.10;87.16
55590;BME280;41452;42.780;23.116;2023-05-11T11:44:26;94556.50;;;11.12;90.90
55590;BME280;41452;42.780;23.116;2023-05-11T11:47:16;94564.66;;;11.34;87.95
55590;BME280;41452;42.780;23.116;2023-05-11T11:49:43;94569.31;;;11.44;89.55
55590;BME280;41452;42.780;23.116;2023-05-11T11:52:11;94568.88;;;11.47;88.28
55590;BME280;41452;42.780;23.116;2023-05-11T11:54:44;94555.38;;;11.31;83.93
55590;BME280;41452;42.780;23.116;2023-05-11T11:57:41;94554.47;;;11.37;83.76
55590;BME280;41452;42.780;23.116;2023-05-11T12:00:11;94552.75;;;11.31;83.64
55590;BME280;41452;42.780;23.116;2023-05-11T12:02:42;94567.25;;;11.46;84.78
55590;BME280;41452;42.780;23.116;2023-05-11T12:05:15;94563.94;;;11.50;86.62
55590;BME280;41452;42.780;23.116;2023-05-11T12:07:48;94565.97;;;11.60;88.96
55590;BME280;41452;42.780;23.116;2023-05-11T12:10:21;94567.47;;;11.56;87.01
55590;BME280;41452;42.780;23.116;2023-05-11T12:12:48;94567.59;;;11.61;85.47
55590;BME280;41452;42.780;23.116;2023-05-11T12:17:51;94571.25;;;11.60;89.79
55590;BME280;41452;42.780;23.116;2023-05-11T12:20:18;94561.31;;;11.62;89.18
55590;BME280;41452;42.780;23.116;2023-05-11T12:22:44;94565.28;;;11.65;88.34
55590;BME280;41452;42.780;23.116;2023-05-11T12:25:12;94568.59;;;11.60;87.91
55590;BME280;41452;42.780;23.116;2023-05-11T12:30:21;94558.22;;;11.53;89.59
55590;BME280;41452;42.780;23.116;2023-05-11T12:32:47;94562.00;;;11.46;87.04
55590;BME280;41452;42.780;23.116;2023-05-11T12:35:13;94559.63;;;11.44;87.44
55590;BME280;41452;42.780;23.116;2023-05-11T12:37:41;94550.00;;;11.38;87.62
55590;BME280;41452;42.780;23.116;2023-05-11T12:40:10;94530.13;;;11.18;87.22
55590;BME280;41452;42.780;23.116;2023-05-11T12:42:36;94509.19;;;11.12;88.43
55590;BME280;41452;42.780;23.116;2023-05-11T12:45:02;94537.53;;;11.33;90.42
55590;BME280;41452;42.780;23.116;2023-05-11T12:47:28;94539.59;;;11.31;89.18
55590;BME280;41452;42.780;23.116;2023-05-11T12:49:54;94539.16;;;11.34;86.80
55590;BME280;41452;42.780;23.116;2023-05-11T12:52:22;94535.50;;;11.35;86.67
55590;BME280;41452;42.780;23.116;2023-05-11T12:54:49;94517.78;;;11.19;87.02
55590;BME280;41452;42.780;23.116;2023-05-11T12:57:28;94524.84;;;11.42;89.22
55590;BME280;41452;42.780;23.116;2023-05-11T13:00:13;94519.47;;;11.37;88.14
55590;BME280;41452;42.780;23.116;2023-05-11T13:02:57;94523.72;;;11.26;87.86
55590;BME280;41452;42.780;23.116;2023-05-11T13:05:24;94521.75;;;11.33;87.77
55590;BME280;41452;42.780;23.116;2023-05-11T13:08:01;94524.38;;;11.33;89.25
55590;BME280;41452;42.780;23.116;2023-05-11T13:10:27;94522.25;;;11.30;88.04
55590;BME280;41452;42.780;23.116;2023-05-11T13:12:52;94510.44;;;11.33;89.95
55590;BME280;41452;42.780;23.116;2023-05-11T13:15:20;94516.97;;;11.30;89.23
55590;BME280;41452;42.780;23.116;2023-05-11T13:17:47;94500.41;;;11.18;88.96
55590;BME280;41452;42.780;23.116;2023-05-11T13:22:41;94497.22;;;11.16;88.60
55590;BME280;41452;42.780;23.116;2023-05-11T13:25:07;94511.72;;;11.30;89.82
55590;BME280;41452;42.780;23.116;2023-05-11T13:27:34;94484.59;;;11.30;91.58
55590;BME280;41452;42.780;23.116;2023-05-11T13:29:59;94504.63;;;11.43;87.68
55590;BME280;41452;42.780;23.116;2023-05-11T13:32:24;94502.44;;;11.39;90.23
55590;BME280;41452;42.780;23.116;2023-05-11T13:34:50;94502.44;;;11.39;87.98
55590;BME280;41452;42.780;23.116;2023-05-11T13:37:15;94496.63;;;11.26;88.45
55590;BME280;41452;42.780;23.116;2023-05-11T13:39:41;94495.47;;;11.33;90.12